createdAt,value
2024-03-07T00:03:19.001Z,32.50
2024-03-07T00:08:24.195Z,39.20
2024-03-07T00:13:29.405Z,38.77
2024-03-07T00:18:35.822Z,39.10
2024-03-07T00:23:41.195Z,37.13
2024-03-07T00:28:46.502Z,38.33
2024-03-07T00:34:03.017Z,42.53
2024-03-07T00:38:58.632Z,32.03
2024-03-07T00:44:05.137Z,34.73
2024-03-07T00:49:10.348Z,32.37
2024-03-07T00:54:15.578Z,35.87
2024-03-07T00:59:21.129Z,33.20
2024-03-07T01:04:28.126Z,31.97
2024-03-07T01:09:33.303Z,40.23
2024-03-07T01:14:38.530Z,32.50
2024-03-07T01:19:44.547Z,34.90
2024-03-07T01:24:51.648Z,33.10
2024-03-07T01:29:57.014Z,31.80
2024-03-07T01:35:02.522Z,30.77
2024-03-07T01:40:10.464Z,36.67
2024-03-07T01:45:15.992Z,34.93
2024-03-07T01:50:21.212Z,35.90
2024-03-07T01:55:26.376Z,37.70
2024-03-07T02:00:31.517Z,36.93
2024-03-07T02:05:37.437Z,39.83
2024-03-07T02:10:43.144Z,39.63
2024-03-07T02:15:49.047Z,39.23
2024-03-07T02:20:56.046Z,39.37
2024-03-07T02:26:01.468Z,34.70
2024-03-07T02:31:06.884Z,38.10
2024-03-07T02:36:12.314Z,37.60
2024-03-07T02:41:17.513Z,37.00
2024-03-07T02:46:22.906Z,33.80
2024-03-07T02:51:28.203Z,37.43
2024-03-07T02:56:33.772Z,33.83
2024-03-07T03:01:39.083Z,37.90
2024-03-07T03:06:44.289Z,36.97
2024-03-07T03:11:49.733Z,39.33
2024-03-07T03:16:55.061Z,41.23
2024-03-07T03:22:00.396Z,42.43
2024-03-07T03:27:06.599Z,41.97
2024-03-07T03:32:12.157Z,45.87
2024-03-07T03:37:18.414Z,45.53
2024-03-07T03:42:24.577Z,46.83
2024-03-07T03:47:30.977Z,40.27
2024-03-07T03:52:36.957Z,41.37
2024-03-07T03:57:43.820Z,44.67
2024-03-07T04:02:50.639Z,45.07
2024-03-07T04:07:57.691Z,42.83
2024-03-07T04:13:04.584Z,44.87
2024-03-07T04:18:10.273Z,39.10
2024-03-07T04:23:15.690Z,46.30
2024-03-07T04:28:21.670Z,43.93
2024-03-07T04:33:28.194Z,43.83
2024-03-07T04:38:33.611Z,45.87
2024-03-07T04:43:38.940Z,45.17
2024-03-07T04:48:44.178Z,45.93
2024-03-07T04:53:49.461Z,48.00
2024-03-07T04:58:55.065Z,44.37
2024-03-07T05:04:03.007Z,41.20
2024-03-07T05:09:09.935Z,39.10
2024-03-07T05:14:17.661Z,43.43
2024-03-07T05:19:23.067Z,43.20
2024-03-07T05:24:28.688Z,39.93
2024-03-07T05:29:33.903Z,42.90
2024-03-07T05:34:41.011Z,41.10
2024-03-07T05:39:46.503Z,46.67
2024-03-07T05:44:51.952Z,40.63
2024-03-07T05:49:57.601Z,35.73
2024-03-07T05:55:02.787Z,44.27
2024-03-07T06:00:11.207Z,40.73
2024-03-07T06:05:17.326Z,47.70
2024-03-07T06:10:25.032Z,39.80
2024-03-07T06:15:30.295Z,42.87
2024-03-07T06:20:36.916Z,38.00
2024-03-07T06:25:48.940Z,39.37
2024-03-07T06:30:55.502Z,42.47
2024-03-07T06:36:02.268Z,42.00
2024-03-07T06:41:10.584Z,37.80
2024-03-07T06:46:17.183Z,40.07
2024-03-07T06:51:23.668Z,40.87
2024-03-07T06:56:29.052Z,36.97
2024-03-07T07:01:35.916Z,38.30
2024-03-07T07:06:42.777Z,42.93
2024-03-07T07:11:48.766Z,37.83
2024-03-07T07:16:54.229Z,45.07
2024-03-07T07:21:59.586Z,36.10
2024-03-07T07:27:05.007Z,37.03
2024-03-07T07:32:12.196Z,44.20
2024-03-07T07:37:17.843Z,47.17
2024-03-07T07:42:23.180Z,150.07
2024-03-07T07:47:29.029Z,117.10
2024-03-07T08:08:15.386Z,132.20
2024-03-07T08:18:37.552Z,61.77
2024-03-07T08:23:43.729Z,85.07
2024-03-07T08:28:49.168Z,137.23
2024-03-07T08:33:55.204Z,45.17
2024-03-07T08:39:00.809Z,65.43
2024-03-07T08:44:06.186Z,88.83
2024-03-07T08:59:51.342Z,71.43
2024-03-07T09:04:57.746Z,60.33
2024-03-07T09:10:03.228Z,79.47
2024-03-07T09:15:11.482Z,38.50
2024-03-07T09:20:17.294Z,60.20
2024-03-07T09:25:22.777Z,44.23
2024-03-07T09:30:29.231Z,44.80
2024-03-07T09:35:34.556Z,41.37
2024-03-07T09:40:40.065Z,35.73
2024-03-07T09:45:48.756Z,36.60
2024-03-07T09:50:54.791Z,39.83
2024-03-07T09:56:00.435Z,42.90
2024-03-07T10:06:23.418Z,35.07
2024-03-07T10:11:29.024Z,45.13
2024-03-07T10:16:34.409Z,28.70
2024-03-07T10:21:39.478Z,32.87
2024-03-07T10:26:47.114Z,34.13
2024-03-07T10:37:17.551Z,31.73
2024-03-07T10:42:25.241Z,34.20
2024-03-07T10:47:31.592Z,33.20
2024-03-07T10:52:40.375Z,36.80
2024-03-07T11:03:03.441Z,28.23
2024-03-07T11:08:11.480Z,30.17
2024-03-07T11:13:18.589Z,27.47
2024-03-07T11:18:23.866Z,30.23
2024-03-07T11:34:20.255Z,27.57
2024-03-07T11:39:45.707Z,33.83
2024-03-07T11:44:52.595Z,28.83
2024-03-07T11:49:59.354Z,29.43
2024-03-07T11:55:06.322Z,25.37
2024-03-07T12:00:16.458Z,25.67
2024-03-07T12:05:21.957Z,28.13
2024-03-07T12:10:27.443Z,30.97
2024-03-07T12:15:33.291Z,30.27
2024-03-07T12:20:42.169Z,26.03
2024-03-07T12:25:48.125Z,30.40
2024-03-07T12:30:55.736Z,34.33
2024-03-07T12:36:04.373Z,27.07
2024-03-07T12:41:16.141Z,23.13
2024-03-07T12:46:22.011Z,28.53
2024-03-07T12:51:27.189Z,30.17
2024-03-07T12:56:33.896Z,22.97
2024-03-07T13:01:41.010Z,23.83
2024-03-07T13:06:48.108Z,20.73
2024-03-07T13:11:53.216Z,25.03
2024-03-07T13:17:00.029Z,22.50
2024-03-07T13:22:07.271Z,25.93
2024-03-07T13:27:13.039Z,26.20
2024-03-07T13:32:18.341Z,21.47
2024-03-07T13:37:23.711Z,25.67
2024-03-07T13:42:28.754Z,23.57
2024-03-07T13:47:33.960Z,25.97
2024-03-07T13:52:40.814Z,25.00
2024-03-07T13:57:49.499Z,25.13
2024-03-07T14:03:24.352Z,24.47
2024-03-07T14:09:00.996Z,23.87
2024-03-07T14:14:26.494Z,28.83
2024-03-07T14:25:55.867Z,24.83
2024-03-07T14:31:01.033Z,26.60
2024-03-07T14:41:26.999Z,90.93
2024-03-07T15:02:31.780Z,31.93
2024-03-07T15:07:36.951Z,65.30
2024-03-07T15:18:05.169Z,68.87
2024-03-07T15:33:35.908Z,87.43
2024-03-07T15:38:41.245Z,54.37
2024-03-07T15:43:46.791Z,59.30
2024-03-07T15:48:53.291Z,28.10
2024-03-07T15:53:59.245Z,36.17
2024-03-07T16:04:35.527Z,291.00
2024-03-07T16:14:57.638Z,289.97
2024-03-07T16:20:02.922Z,188.27
2024-03-07T16:30:28.098Z,134.27
2024-03-07T16:35:33.920Z,86.03
2024-03-07T16:40:42.948Z,110.63
2024-03-07T16:45:47.534Z,141.40
2024-03-07T16:50:54.535Z,48.47
2024-03-07T16:55:59.671Z,35.33
2024-03-07T17:01:07.414Z,40.17
2024-03-07T17:06:12.582Z,83.30
2024-03-07T17:11:17.860Z,83.93
2024-03-07T17:16:24.370Z,60.17
2024-03-07T17:21:29.443Z,35.83
2024-03-07T17:26:35.280Z,28.97
2024-03-07T17:31:40.585Z,49.83
2024-03-07T17:36:47.995Z,43.23
2024-03-07T17:41:53.206Z,36.97
2024-03-07T17:46:58.429Z,38.97
2024-03-07T17:52:03.781Z,26.03
2024-03-07T17:57:09.047Z,27.47
2024-03-07T18:02:15.748Z,34.50
2024-03-07T18:07:22.753Z,34.00
2024-03-07T18:12:28.772Z,28.73
2024-03-07T18:17:35.204Z,40.60
2024-03-07T18:22:43.536Z,43.53
2024-03-07T18:27:48.702Z,54.73
2024-03-07T18:32:54.552Z,67.57
2024-03-07T18:37:59.934Z,114.80
2024-03-07T18:43:08.499Z,78.53
2024-03-07T18:48:15.621Z,49.00
2024-03-07T18:53:22.626Z,89.87
2024-03-07T18:58:27.781Z,58.27
2024-03-07T19:03:32.915Z,125.07
2024-03-07T19:08:38.159Z,107.23
2024-03-07T19:13:43.739Z,89.13
2024-03-07T19:18:48.800Z,53.67
2024-03-07T19:23:54.324Z,57.03
2024-03-07T19:29:00.221Z,56.33
2024-03-07T19:34:07.172Z,62.93
2024-03-07T19:39:14.048Z,129.27
2024-03-07T19:44:19.829Z,95.27
2024-03-07T19:49:26.016Z,94.77
2024-03-07T19:54:31.872Z,147.43
2024-03-07T19:59:36.900Z,168.80
2024-03-07T20:04:43.837Z,122.00
2024-03-07T20:09:49.231Z,137.97
2024-03-07T20:14:54.274Z,125.80
2024-03-07T20:19:59.470Z,90.07
2024-03-07T20:25:06.697Z,107.73
2024-03-07T20:30:15.549Z,109.03
2024-03-07T20:35:21.665Z,90.97
2024-03-07T20:40:27.202Z,82.75
2024-03-07T20:45:34.059Z,68.70
2024-03-07T20:50:40.943Z,65.60
2024-03-07T20:55:47.124Z,62.93
2024-03-07T21:00:53.448Z,55.47
2024-03-07T21:05:59.680Z,58.23
2024-03-07T21:11:06.817Z,299.93
2024-03-07T21:16:12.856Z,316.13
2024-03-07T21:21:18.148Z,412.57
2024-03-07T21:26:23.364Z,122.97
2024-03-07T21:31:28.686Z,130.97
2024-03-07T21:36:33.752Z,189.33
2024-03-07T21:41:38.780Z,140.70
2024-03-07T21:46:44.508Z,69.60
2024-03-07T21:51:50.277Z,67.83
2024-03-07T21:56:55.325Z,188.17
2024-03-07T22:02:00.944Z,117.27
2024-03-07T22:07:06.401Z,191.00
2024-03-07T22:12:11.559Z,317.80
2024-03-07T22:17:17.589Z,172.00
2024-03-07T22:22:22.600Z,120.03
2024-03-07T22:27:28.818Z,118.73
2024-03-07T22:32:34.056Z,151.50
2024-03-07T22:37:39.412Z,111.13
2024-03-07T22:42:45.281Z,101.20
2024-03-07T22:47:52.657Z,87.63
2024-03-07T22:52:58.149Z,93.13
2024-03-07T22:58:04.091Z,95.10
2024-03-07T23:03:09.179Z,83.53
2024-03-07T23:08:14.762Z,81.33
2024-03-07T23:13:20.035Z,83.13
2024-03-07T23:18:25.720Z,79.13
2024-03-07T23:23:30.861Z,76.93
2024-03-07T23:28:37.066Z,86.10
2024-03-07T23:33:42.887Z,90.57
2024-03-07T23:38:48.453Z,100.67
2024-03-07T23:43:54.511Z,96.50
2024-03-07T23:48:59.880Z,94.70
2024-03-07T23:54:06.212Z,96.27
2024-03-07T23:59:11.509Z,94.73
